createdAt,value
2018-08-19T00:02:21.381Z,18.93
2018-08-19T00:05:15.936Z,18.87
2018-08-19T00:07:45.953Z,18.83
2018-08-19T00:10:15.471Z,18.76
2018-08-19T00:12:47.858Z,18.81
2018-08-19T00:15:17.311Z,18.60
2018-08-19T00:17:46.681Z,18.55
2018-08-19T00:20:16.077Z,18.54
2018-08-19T00:22:46.107Z,18.40
2018-08-19T00:25:30.900Z,18.39
2018-08-19T00:28:00.252Z,18.43
2018-08-19T00:30:31.835Z,18.31
2018-08-19T00:33:01.581Z,18.34
2018-08-19T00:35:31.725Z,18.39
2018-08-19T00:38:01.221Z,18.43
2018-08-19T00:40:30.925Z,18.34
2018-08-19T00:43:00.729Z,18.41
2018-08-19T00:45:30.223Z,18.43
2018-08-19T00:47:59.557Z,18.40
2018-08-19T00:50:29.026Z,18.34
2018-08-19T00:52:58.381Z,18.33
2018-08-19T00:55:31.789Z,18.26
2018-08-19T00:58:01.164Z,18.27
2018-08-19T01:00:30.603Z,18.15
2018-08-19T01:02:59.999Z,18.08
2018-08-19T01:05:29.393Z,17.74
2018-08-19T01:07:58.750Z,17.85
2018-08-19T01:10:28.232Z,17.90
2018-08-19T01:12:57.595Z,17.75
2018-08-19T01:15:27.008Z,17.71
2018-08-19T01:17:57.542Z,17.82
2018-08-19T01:20:26.916Z,17.83
2018-08-19T01:22:56.288Z,17.58
2018-08-19T01:25:25.733Z,17.75
2018-08-19T01:27:55.108Z,17.59
2018-08-19T01:30:26.344Z,17.37
2018-08-19T01:32:55.709Z,17.35
2018-08-19T01:35:30.312Z,17.40
2018-08-19T01:37:59.710Z,17.57
2018-08-19T01:40:29.136Z,17.50
2018-08-19T01:42:58.497Z,17.51
2018-08-19T01:45:27.924Z,17.63
2018-08-19T01:47:57.282Z,17.54
2018-08-19T01:50:26.741Z,17.62
2018-08-19T01:52:56.126Z,17.70
2018-08-19T01:55:25.560Z,17.45
2018-08-19T01:57:56.799Z,17.38
2018-08-19T02:00:26.185Z,17.43
2018-08-19T02:03:05.541Z,17.41
2018-08-19T02:05:34.901Z,17.35
2018-08-19T02:08:05.209Z,17.32
2018-08-19T02:10:35.520Z,17.20
2018-08-19T02:13:04.989Z,17.13
2018-08-19T02:15:34.372Z,17.22
2018-08-19T02:18:05.070Z,17.26
2018-08-19T02:20:38.129Z,17.28
2018-08-19T02:23:09.354Z,17.26
2018-08-19T02:25:42.370Z,17.25
2018-08-19T02:28:12.604Z,17.38
2018-08-19T02:30:51.624Z,17.43
2018-08-19T02:33:22.292Z,17.38
2018-08-19T02:35:55.777Z,17.40
2018-08-19T02:38:25.582Z,17.30
2018-08-19T02:40:55.237Z,17.16
2018-08-19T02:43:24.602Z,17.14
2018-08-19T02:45:54.032Z,17.16
2018-08-19T02:48:44.481Z,17.09
2018-08-19T02:51:15.820Z,17.33
2018-08-19T02:53:46.373Z,17.13
2018-08-19T02:56:16.373Z,17.26
2018-08-19T02:58:46.813Z,17.04
2018-08-19T03:01:17.115Z,17.16
2018-08-19T03:03:46.463Z,16.92
2018-08-19T03:06:15.803Z,16.90
2018-08-19T03:08:50.196Z,17.03
2018-08-19T03:11:21.521Z,16.56
2018-08-19T03:13:50.909Z,16.77
2018-08-19T03:16:20.247Z,16.58
2018-08-19T03:18:51.812Z,16.44
2018-08-19T03:21:22.175Z,16.39
2018-08-19T03:23:52.901Z,16.32
2018-08-19T03:26:22.230Z,16.34
2018-08-19T03:28:51.560Z,16.24
2018-08-19T03:31:20.888Z,16.19
2018-08-19T03:33:50.220Z,16.30
2018-08-19T03:36:19.564Z,16.26
2018-08-19T03:38:48.933Z,16.13
2018-08-19T03:41:18.288Z,16.62
2018-08-19T03:43:51.718Z,16.56
2018-08-19T03:46:21.546Z,16.25
2018-08-19T03:48:51.230Z,16.86
2018-08-19T03:51:20.577Z,16.76
2018-08-19T03:53:49.964Z,16.36
2018-08-19T03:56:24.670Z,16.13
2018-08-19T03:58:57.648Z,16.09
2018-08-19T04:01:43.057Z,16.21
2018-08-19T04:04:14.484Z,15.98
2018-08-19T04:06:44.237Z,15.77
2018-08-19T04:09:13.597Z,15.96
2018-08-19T04:11:43.016Z,16.29
2018-08-19T04:14:31.336Z,16.14
2018-08-19T04:17:01.769Z,15.97
2018-08-19T04:19:31.417Z,15.85
2018-08-19T04:22:02.827Z,15.96
2018-08-19T04:24:32.533Z,15.84
2018-08-19T04:27:09.068Z,15.78
2018-08-19T04:29:38.606Z,15.73
2018-08-19T04:32:19.452Z,15.70
2018-08-19T04:34:48.781Z,15.78
2018-08-19T04:37:18.238Z,15.66
2018-08-19T04:39:47.554Z,15.69
2018-08-19T04:42:16.931Z,15.71
2018-08-19T04:44:46.225Z,15.63
2018-08-19T04:47:28.745Z,15.60
2018-08-19T04:49:58.073Z,15.69
2018-08-19T04:52:27.448Z,15.68
2018-08-19T04:54:57.411Z,15.71
2018-08-19T04:57:26.859Z,15.70
2018-08-19T04:59:56.189Z,15.69
2018-08-19T05:02:25.548Z,15.86
2018-08-19T05:04:55.002Z,15.89
2018-08-19T05:07:24.280Z,15.94
2018-08-19T05:09:53.650Z,15.97
2018-08-19T05:12:22.971Z,16.05
2018-08-19T05:14:52.353Z,16.06
2018-08-19T05:17:21.685Z,15.99
2018-08-19T05:19:52.297Z,16.16
2018-08-19T05:22:21.646Z,16.31
2018-08-19T05:24:50.994Z,16.43
2018-08-19T05:27:20.321Z,16.43
2018-08-19T05:29:49.672Z,16.49
2018-08-19T05:32:19.010Z,16.59
2018-08-19T05:34:48.401Z,16.62
2018-08-19T05:37:17.750Z,16.80
2018-08-19T05:39:51.198Z,16.96
2018-08-19T05:42:20.484Z,17.05
2018-08-19T05:44:49.917Z,17.18
2018-08-19T05:47:19.293Z,17.24
2018-08-19T05:49:49.397Z,17.35
2018-08-19T05:52:19.826Z,17.53
2018-08-19T05:54:54.479Z,17.56
2018-08-19T05:57:23.861Z,17.76
2018-08-19T05:59:54.370Z,17.78
2018-08-19T06:02:30.942Z,17.87
2018-08-19T06:05:01.529Z,17.94
2018-08-19T06:07:31.132Z,18.03
2018-08-19T06:10:00.585Z,18.22
2018-08-19T06:12:30.000Z,18.22
2018-08-19T06:15:00.525Z,18.40
2018-08-19T06:17:29.969Z,18.55
2018-08-19T06:19:59.302Z,18.59
2018-08-19T06:22:39.078Z,18.61
2018-08-19T06:25:08.780Z,18.59
2018-08-19T06:27:43.918Z,18.52
2018-08-19T06:30:14.037Z,18.56
2018-08-19T06:32:43.512Z,18.60
2018-08-19T06:35:12.822Z,18.87
2018-08-19T06:37:42.279Z,18.92
2018-08-19T06:40:13.774Z,19.20
2018-08-19T06:42:43.137Z,19.23
2018-08-19T06:45:13.093Z,19.29
2018-08-19T06:47:42.605Z,19.30
2018-08-19T06:50:25.327Z,19.52
2018-08-19T06:52:55.551Z,19.73
2018-08-19T06:55:25.081Z,19.67
2018-08-19T06:57:59.108Z,19.70
2018-08-19T07:00:30.818Z,19.95
2018-08-19T07:03:04.225Z,20.18
2018-08-19T07:05:34.346Z,20.30
2018-08-19T07:08:03.820Z,20.23
2018-08-19T07:10:36.528Z,20.35
2018-08-19T07:13:08.725Z,20.55
2018-08-19T07:15:39.478Z,20.75
2018-08-19T07:18:11.259Z,20.95
2018-08-19T07:20:41.820Z,20.97
2018-08-19T07:23:11.713Z,21.09
2018-08-19T07:25:43.494Z,21.17
2018-08-19T07:28:14.618Z,21.35
2018-08-19T07:30:44.362Z,21.48
2018-08-19T07:33:14.257Z,21.13
2018-08-19T07:35:43.808Z,21.20
2018-08-19T07:38:13.162Z,21.41
2018-08-19T07:40:42.630Z,21.79
2018-08-19T07:43:11.998Z,22.04
2018-08-19T07:45:41.425Z,22.21
2018-08-19T07:48:10.805Z,21.97
2018-08-19T07:50:40.211Z,21.82
2018-08-19T07:53:09.556Z,21.79
2018-08-19T07:55:38.910Z,22.10
2018-08-19T07:58:08.270Z,22.06
2018-08-19T08:00:40.451Z,22.34
2018-08-19T08:03:10.362Z,22.37
2018-08-19T08:05:44.961Z,22.42
2018-08-19T08:08:14.322Z,22.64
2018-08-19T08:10:44.191Z,22.30
2018-08-19T08:13:14.005Z,22.62
2018-08-19T08:15:48.718Z,22.90
2018-08-19T08:18:18.120Z,23.03
2018-08-19T08:20:47.484Z,23.02
2018-08-19T08:23:24.127Z,23.26
2018-08-19T08:25:53.462Z,23.45
2018-08-19T08:28:22.864Z,23.47
2018-08-19T08:30:52.213Z,23.80
2018-08-19T08:33:21.728Z,23.79
2018-08-19T08:35:57.200Z,23.83
2018-08-19T08:38:26.775Z,24.04
2018-08-19T08:40:56.209Z,23.96
2018-08-19T08:43:25.565Z,24.04
2018-08-19T08:45:57.627Z,23.96
2018-08-19T08:48:27.354Z,23.84
2018-08-19T08:50:57.173Z,24.31
2018-08-19T08:53:34.557Z,24.16
2018-08-19T08:56:04.463Z,24.41
2018-08-19T08:58:34.385Z,24.47
2018-08-19T09:01:03.881Z,24.61
2018-08-19T09:03:33.341Z,24.69
2018-08-19T09:06:05.019Z,24.85
2018-08-19T09:08:35.887Z,24.94
2018-08-19T09:11:08.423Z,25.19
2018-08-19T09:13:38.592Z,25.19
2018-08-19T09:16:09.345Z,25.25
2018-08-19T09:18:40.702Z,25.62
2018-08-19T09:21:12.330Z,25.76
2018-08-19T09:23:43.337Z,25.93
2018-08-19T09:26:14.136Z,25.43
2018-08-19T09:28:44.414Z,25.16
2018-08-19T09:31:16.282Z,25.56
2018-08-19T09:33:50.642Z,26.20
2018-08-19T09:36:21.393Z,26.11
2018-08-19T09:38:51.365Z,25.44
2018-08-19T09:41:21.160Z,25.65
2018-08-19T09:43:51.037Z,25.64
2018-08-19T09:46:20.844Z,25.50
2018-08-19T09:48:50.638Z,26.05
2018-08-19T09:51:20.545Z,25.93
2018-08-19T09:53:50.511Z,26.08
2018-08-19T09:56:22.943Z,26.11
2018-08-19T09:58:57.926Z,26.03
2018-08-19T10:01:33.157Z,26.76
2018-08-19T10:04:08.099Z,27.00
2018-08-19T10:06:39.839Z,26.97
2018-08-19T10:09:10.500Z,27.00
2018-08-19T10:11:42.004Z,26.83
2018-08-19T10:21:42.123Z,27.10
2018-08-19T10:24:26.227Z,26.71
2018-08-19T10:26:57.078Z,26.37
2018-08-19T10:32:26.115Z,26.92
2018-08-19T10:35:05.284Z,26.50
2018-08-19T10:37:37.286Z,27.08
2018-08-19T10:40:07.115Z,27.77
2018-08-19T10:42:36.335Z,27.19
2018-08-19T10:45:12.851Z,27.57
2018-08-19T10:47:42.042Z,27.48
2018-08-19T10:50:11.277Z,27.03
2018-08-19T10:52:42.115Z,27.13
2018-08-19T10:55:12.481Z,27.63
2018-08-19T10:57:41.703Z,28.04
2018-08-19T11:00:15.390Z,27.86
2018-08-19T11:02:44.573Z,27.39
2018-08-19T11:05:13.739Z,27.54
2018-08-19T11:07:42.935Z,28.11
2018-08-19T11:10:19.284Z,28.49
2018-08-19T11:12:52.289Z,28.72
2018-08-19T11:15:46.710Z,29.00
2018-08-19T11:18:31.503Z,28.65
2018-08-19T11:21:04.689Z,29.51
2018-08-19T11:23:37.741Z,30.20
2018-08-19T11:26:08.082Z,29.74
2018-08-19T11:28:49.668Z,28.32
2018-08-19T11:31:25.287Z,29.62
2018-08-19T11:34:25.928Z,29.90
2018-08-19T11:36:55.276Z,30.17
2018-08-19T11:39:29.717Z,29.28
2018-08-19T11:41:59.809Z,30.06
2018-08-19T11:44:29.247Z,30.12
2018-08-19T11:46:58.590Z,30.50
2018-08-19T11:49:27.987Z,30.75
2018-08-19T11:52:01.826Z,30.97
2018-08-19T11:54:31.830Z,30.68
2018-08-19T11:57:06.825Z,30.70
2018-08-19T11:59:39.137Z,31.53
2018-08-19T12:02:11.089Z,32.03
2018-08-19T12:04:40.369Z,31.28
2018-08-19T12:07:09.752Z,30.98
2018-08-19T12:09:42.982Z,30.78
2018-08-19T12:12:12.386Z,30.52
2018-08-19T12:14:41.784Z,30.75
2018-08-19T12:17:12.651Z,31.50
2018-08-19T12:19:43.782Z,30.16
2018-08-19T12:22:13.220Z,32.07
2018-08-19T12:24:43.708Z,30.43
2018-08-19T12:27:14.504Z,31.47
2018-08-19T12:29:44.463Z,29.93
2018-08-19T12:32:22.876Z,29.91
2018-08-19T12:34:53.408Z,31.03
2018-08-19T12:37:23.987Z,31.63
2018-08-19T12:39:53.859Z,32.02
2018-08-19T12:42:23.362Z,32.91
2018-08-19T12:45:14.527Z,33.52
2018-08-19T12:47:43.858Z,32.18
2018-08-19T12:50:15.561Z,33.19
2018-08-19T12:52:45.033Z,33.38
2018-08-19T12:55:16.083Z,33.16
2018-08-19T12:57:45.799Z,33.30
2018-08-19T13:00:19.385Z,32.93
2018-08-19T13:02:50.612Z,32.47
2018-08-19T13:05:20.540Z,33.04
2018-08-19T13:07:49.922Z,32.74
2018-08-19T13:10:19.452Z,33.32
2018-08-19T13:12:54.045Z,32.03
2018-08-19T13:15:24.922Z,32.47
2018-08-19T13:17:54.263Z,33.08
2018-08-19T13:20:23.694Z,32.57
2018-08-19T13:22:58.352Z,33.73
2018-08-19T13:25:27.837Z,32.94
2018-08-19T13:27:57.188Z,30.79
2018-08-19T13:30:26.495Z,31.58
2018-08-19T13:32:55.888Z,32.43
2018-08-19T13:35:25.208Z,33.75
2018-08-19T13:37:54.596Z,33.36
2018-08-19T13:40:23.925Z,33.21
2018-08-19T13:42:53.245Z,32.76
2018-08-19T13:45:23.350Z,32.08
2018-08-19T13:47:54.105Z,34.21
2018-08-19T13:50:23.469Z,33.24
2018-08-19T13:52:52.863Z,31.06
2018-08-19T13:55:22.232Z,30.21
2018-08-19T13:57:51.680Z,31.01
2018-08-19T14:00:23.001Z,32.44
2018-08-19T14:02:52.680Z,33.30
2018-08-19T14:05:22.045Z,33.31
2018-08-19T14:07:51.446Z,34.88
2018-08-19T14:10:20.880Z,34.53
2018-08-19T14:12:50.252Z,34.09
2018-08-19T14:15:19.604Z,33.05
2018-08-19T14:17:49.036Z,32.28
2018-08-19T14:20:18.390Z,32.66
2018-08-19T14:22:47.765Z,33.76
2018-08-19T14:25:17.120Z,34.26
2018-08-19T14:27:46.579Z,34.35
2018-08-19T14:30:16.021Z,32.90
2018-08-19T14:32:46.530Z,31.41
2018-08-19T14:35:15.906Z,31.36
2018-08-19T14:37:45.301Z,31.24
2018-08-19T14:40:18.678Z,31.76
2018-08-19T14:42:48.036Z,31.41
2018-08-19T14:45:17.364Z,32.81
2018-08-19T14:47:46.784Z,32.78
2018-08-19T14:50:18.714Z,33.88
2018-08-19T14:52:48.220Z,32.50
2018-08-19T14:55:17.540Z,32.10
2018-08-19T14:57:46.949Z,31.52
2018-08-19T15:00:17.536Z,32.43
2018-08-19T15:02:46.932Z,32.19
2018-08-19T15:05:19.564Z,31.58
2018-08-19T15:07:49.344Z,32.17
2018-08-19T15:10:25.023Z,30.81
2018-08-19T15:12:54.605Z,30.41
2018-08-19T15:15:24.020Z,30.90
2018-08-19T15:17:58.617Z,31.93
2018-08-19T15:20:33.307Z,32.59
2018-08-19T15:23:21.807Z,32.32
2018-08-19T15:25:51.178Z,30.43
2018-08-19T15:28:20.525Z,30.48
2018-08-19T15:30:49.846Z,30.46
2018-08-19T15:33:19.876Z,32.04
2018-08-19T15:35:49.195Z,33.90
2018-08-19T15:38:18.576Z,33.44
2018-08-19T15:40:49.516Z,34.44
2018-08-19T15:43:18.904Z,33.62
2018-08-19T15:45:48.339Z,33.30
2018-08-19T15:48:17.738Z,32.70
2018-08-19T15:50:47.109Z,32.24
2018-08-19T15:53:18.598Z,31.52
2018-08-19T15:55:48.095Z,30.15
2018-08-19T15:58:17.504Z,32.52
2018-08-19T16:00:46.845Z,32.29
2018-08-19T16:03:16.328Z,31.05
2018-08-19T16:05:45.678Z,31.03
2018-08-19T16:08:15.133Z,34.13
2018-08-19T16:10:44.510Z,33.73
2018-08-19T16:13:13.913Z,31.24
2018-08-19T16:15:43.273Z,32.71
2018-08-19T16:18:12.729Z,33.49
2018-08-19T16:20:49.220Z,33.47
2018-08-19T16:23:18.628Z,32.89
2018-08-19T16:25:48.097Z,32.97
2018-08-19T16:28:17.481Z,33.78
2018-08-19T16:30:46.883Z,32.51
2018-08-19T16:33:16.231Z,33.76
2018-08-19T16:35:45.711Z,34.10
2018-08-19T16:38:15.066Z,33.91
2018-08-19T16:40:44.521Z,31.76
2018-08-19T16:43:13.893Z,32.64
2018-08-19T16:45:43.317Z,34.31
2018-08-19T16:48:12.749Z,32.78
2018-08-19T16:50:42.262Z,32.38
2018-08-19T16:53:11.509Z,32.72
2018-08-19T16:55:40.921Z,33.01
2018-08-19T16:58:10.239Z,31.76
2018-08-19T17:00:39.760Z,32.94
2018-08-19T17:03:30.027Z,32.49
2018-08-19T17:05:59.336Z,30.96
2018-08-19T17:08:28.857Z,31.18
2018-08-19T17:10:58.289Z,29.97
2018-08-19T17:13:27.589Z,30.25
2018-08-19T17:15:56.910Z,31.80
2018-08-19T17:18:26.278Z,30.90
2018-08-19T17:20:55.629Z,30.22
2018-08-19T17:23:25.557Z,28.90
2018-08-19T17:25:54.885Z,29.00
2018-08-19T17:28:25.524Z,29.19
2018-08-19T17:30:55.449Z,28.83
2018-08-19T17:33:28.154Z,28.85
2018-08-19T17:35:57.499Z,28.27
2018-08-19T17:38:33.235Z,28.20
2018-08-19T17:41:02.985Z,28.28
2018-08-19T17:43:37.615Z,28.09
2018-08-19T17:46:12.592Z,28.07
2018-08-19T17:48:42.870Z,28.05
2018-08-19T17:51:27.394Z,28.10
2018-08-19T17:53:56.773Z,27.84
2018-08-19T17:56:26.156Z,27.62
2018-08-19T17:58:55.544Z,27.58
2018-08-19T18:01:25.006Z,27.50
2018-08-19T18:03:54.324Z,27.42
2018-08-19T18:06:23.824Z,27.35
2018-08-19T18:08:53.851Z,27.23
2018-08-19T18:11:23.377Z,27.16
2018-08-19T18:13:52.717Z,27.04
2018-08-19T18:16:22.133Z,26.84
2018-08-19T18:18:51.560Z,26.78
2018-08-19T18:21:20.932Z,26.72
2018-08-19T18:23:50.292Z,26.64
2018-08-19T18:26:19.724Z,26.53
2018-08-19T18:28:49.389Z,26.41
2018-08-19T18:31:21.593Z,26.32
2018-08-19T18:33:56.286Z,26.12
2018-08-19T18:36:26.718Z,26.17
2018-08-19T18:38:56.652Z,26.12
2018-08-19T18:41:31.355Z,25.83
2018-08-19T18:44:02.854Z,25.93
2018-08-19T18:46:32.827Z,25.82
2018-08-19T18:49:20.444Z,25.72
2018-08-19T18:51:52.156Z,25.74
2018-08-19T18:54:29.822Z,25.68
2018-08-19T18:57:06.445Z,25.58
2018-08-19T18:59:35.881Z,25.42
2018-08-19T19:02:05.394Z,25.37
2018-08-19T19:04:34.710Z,25.36
2018-08-19T19:07:04.117Z,25.39
2018-08-19T19:09:42.092Z,25.14
2018-08-19T19:12:11.469Z,25.27
2018-08-19T19:14:40.845Z,24.95
2018-08-19T19:17:10.325Z,24.92
2018-08-19T19:19:43.733Z,24.65
2018-08-19T19:22:13.089Z,24.66
2018-08-19T19:24:42.701Z,24.41
2018-08-19T19:27:12.251Z,24.41
2018-08-19T19:29:43.503Z,24.44
2018-08-19T19:32:23.266Z,24.36
2018-08-19T19:34:52.769Z,24.24
2018-08-19T19:37:22.423Z,24.47
2018-08-19T19:39:56.628Z,24.30
2018-08-19T19:42:26.040Z,24.01
2018-08-19T19:44:55.410Z,23.85
2018-08-19T19:47:24.814Z,23.89
2018-08-19T19:49:57.785Z,24.03
2018-08-19T19:52:27.540Z,24.09
2018-08-19T19:54:57.162Z,23.81
2018-08-19T19:57:26.493Z,23.68
2018-08-19T19:59:55.840Z,23.72
2018-08-19T20:02:31.289Z,23.87
2018-08-19T20:05:01.209Z,23.53
2018-08-19T20:07:30.661Z,23.61
2018-08-19T20:10:00.074Z,23.50
2018-08-19T20:12:30.168Z,23.57
2018-08-19T20:15:01.442Z,23.75
2018-08-19T20:17:30.829Z,23.26
2018-08-19T20:20:00.300Z,23.34
2018-08-19T20:22:29.729Z,22.92
2018-08-19T20:24:59.058Z,22.75
2018-08-19T20:27:28.420Z,23.06
2018-08-19T20:29:57.752Z,22.87
2018-08-19T20:32:27.165Z,22.70
2018-08-19T20:34:56.489Z,22.56
2018-08-19T20:37:27.929Z,22.74
2018-08-19T20:39:57.293Z,22.68
2018-08-19T20:42:26.670Z,22.68
2018-08-19T20:44:56.021Z,22.84
2018-08-19T20:47:25.399Z,22.45
2018-08-19T20:49:54.741Z,22.74
2018-08-19T20:52:46.098Z,22.44
2018-08-19T20:55:15.885Z,22.49
2018-08-19T20:57:45.696Z,22.30
2018-08-19T21:00:15.061Z,22.62
2018-08-19T21:02:44.493Z,22.65
2018-08-19T21:05:13.854Z,22.72
2018-08-19T21:07:44.949Z,23.01
2018-08-19T21:10:14.318Z,23.04
2018-08-19T21:12:43.701Z,22.85
2018-08-19T21:15:13.089Z,22.64
2018-08-19T21:17:42.502Z,23.01
2018-08-19T21:20:11.860Z,22.98
2018-08-19T21:22:41.226Z,23.02
2018-08-19T21:25:10.616Z,23.10
2018-08-19T21:27:40.124Z,23.27
2018-08-19T21:30:09.615Z,23.30
2018-08-19T21:32:39.048Z,23.33
2018-08-19T21:35:09.251Z,23.13
2018-08-19T21:37:38.645Z,22.91
2018-08-19T21:40:08.045Z,23.04
2018-08-19T21:42:51.771Z,22.94
2018-08-19T21:45:21.385Z,23.03
2018-08-19T21:47:50.785Z,22.92
2018-08-19T21:50:20.121Z,22.86
2018-08-19T21:53:06.087Z,22.84
2018-08-19T21:55:37.596Z,22.19
2018-08-19T21:58:07.664Z,22.78
2018-08-19T22:00:39.304Z,22.86
2018-08-19T22:03:17.765Z,22.37
2018-08-19T22:05:47.904Z,22.62
2018-08-19T22:08:17.545Z,22.37
2018-08-19T22:10:48.165Z,22.54
2018-08-19T22:13:17.529Z,22.51
2018-08-19T22:15:47.593Z,22.72
2018-08-19T22:18:22.527Z,22.75
2018-08-19T22:21:10.519Z,22.70
2018-08-19T22:23:43.512Z,22.72
2018-08-19T22:26:14.161Z,22.70
2018-08-19T22:28:43.850Z,22.76
2018-08-19T22:31:26.153Z,22.67
2018-08-19T22:33:56.788Z,22.61
2018-08-19T22:36:26.509Z,22.64
2018-08-19T22:38:56.720Z,22.52
2018-08-19T22:41:27.665Z,22.50
2018-08-19T22:43:57.469Z,22.53
2018-08-19T22:46:27.502Z,22.32
2018-08-19T22:48:57.508Z,22.26
2018-08-19T22:51:32.545Z,22.28
2018-08-19T22:54:01.887Z,22.28
2018-08-19T22:56:31.238Z,22.18
2018-08-19T22:59:00.596Z,22.15
2018-08-19T23:01:35.104Z,21.99
2018-08-19T23:04:04.793Z,21.99
2018-08-19T23:06:34.592Z,21.92
2018-08-19T23:09:04.939Z,21.93
2018-08-19T23:11:39.625Z,22.05
2018-08-19T23:14:26.117Z,22.04
2018-08-19T23:16:55.604Z,21.96
2018-08-19T23:19:25.000Z,21.90
2018-08-19T23:21:54.352Z,21.94
2018-08-19T23:24:23.717Z,21.96
2018-08-19T23:26:53.056Z,22.00
2018-08-19T23:29:22.512Z,21.93
2018-08-19T23:31:51.866Z,21.81
2018-08-19T23:34:21.321Z,22.00
2018-08-19T23:36:50.672Z,21.85
2018-08-19T23:39:20.127Z,21.76
2018-08-19T23:41:49.509Z,21.68
2018-08-19T23:44:18.937Z,21.81
2018-08-19T23:46:48.281Z,21.61
2018-08-19T23:49:17.736Z,21.70
2018-08-19T23:51:47.054Z,21.72
2018-08-19T23:54:16.401Z,21.66
2018-08-19T23:56:45.729Z,21.54
2018-08-19T23:59:21.237Z,21.59
